Time,TemperatureF,DewpointF,PressureIn,WindDirection,WindDirectionDegrees,WindSpeedMPH,WindSpeedGustMPH,Humidity,HourlyPrecipIn,Conditions,Clouds,dailyrainin,SolarRadiationWatts/m^2,SoftwareType,DateUTC
2013-01-12 00:32:00,65.6,62.9,30.17,ESE,121,0.0,0.0,91,0.00,,---,0.00,0.00,VWS V14.01,2013-01-12 05:32:00,
2013-01-12 01:03:00,64.8,62.4,30.17,ESE,121,0.0,0.0,92,0.00,,---,0.00,0.00,VWS V14.01,2013-01-12 06:03:00,
2013-01-12 01:32:00,64.3,62.5,30.17,ESE,121,0.0,0.0,94,0.00,,---,0.00,0.00,VWS V14.01,2013-01-12 06:32:00,
2013-01-12 02:03:00,64.4,62.9,30.16,ESE,121,0.0,0.0,95,0.00,,---,0.00,0.00,VWS V14.01,2013-01-12 07:03:00,
2013-01-12 02:33:00,63.9,62.4,30.15,ESE,121,0.0,0.0,95,0.00,,---,0.00,0.00,VWS V14.01,2013-01-12 07:33:00,
2013-01-12 03:03:00,63.4,62.0,30.15,ESE,121,0.0,0.0,95,0.00,,---,0.00,0.00,VWS V14.01,2013-01-12 08:03:00,
2013-01-12 03:33:00,63.1,61.9,30.15,ESE,121,0.0,0.0,96,0.00,,---,0.00,0.00,VWS V14.01,2013-01-12 08:33:00,
2013-01-12 04:03:00,62.6,61.5,30.15,ESE,121,0.0,0.0,96,0.00,,---,0.00,0.00,VWS V14.01,2013-01-12 09:03:00,
2013-01-12 04:32:00,62.1,61.0,30.14,ESE,121,0.0,0.0,96,0.00,,---,0.00,0.00,VWS V14.01,2013-01-12 09:32:00,
2013-01-12 05:03:00,61.8,60.7,30.13,ESE,121,0.0,0.0,96,0.00,,---,0.00,0.00,VWS V14.01,2013-01-12 10:03:00,
2013-01-12 05:33:00,61.3,60.2,30.14,ESE,121,0.0,0.0,96,0.00,,---,0.00,0.00,VWS V14.01,2013-01-12 10:33:00,
2013-01-12 06:03:00,61.1,60.0,30.14,ESE,121,0.0,0.0,96,0.00,,---,0.00,0.00,VWS V14.01,2013-01-12 11:03:00,
2013-01-12 06:33:00,61.1,60.0,30.15,ESE,121,0.0,0.0,96,0.00,,---,0.00,0.00,VWS V14.01,2013-01-12 11:33:00,
2013-01-12 07:03:00,60.6,59.8,30.16,ESE,121,0.0,0.0,97,0.00,,---,0.00,0.00,VWS V14.01,2013-01-12 12:03:00,
2013-01-12 07:33:00,60.4,59.5,30.16,ESE,121,0.0,0.0,97,0.00,,---,0.00,11.00,VWS V14.01,2013-01-12 12:33:00,
2013-01-12 08:03:00,61.1,60.2,30.17,ESE,121,0.0,0.0,97,0.00,,---,0.00,98.00,VWS V14.01,2013-01-12 13:03:00,
2013-01-12 08:33:00,65.5,64.9,30.17,ESE,121,0.0,0.0,98,0.00,,---,0.00,185.00,VWS V14.01,2013-01-12 13:33:00,
2013-01-12 09:03:00,71.0,70.4,30.17,ESE,121,0.0,0.0,98,0.00,,---,0.00,239.00,VWS V14.01,2013-01-12 14:03:00,
2013-01-12 09:32:00,74.0,70.9,30.18,East,86,0.0,4.0,90,0.00,,---,0.00,352.00,VWS V14.01,2013-01-12 14:32:00,
2013-01-12 10:03:00,76.9,69.5,30.18,ESE,117,2.0,6.0,78,0.00,,---,0.00,457.00,VWS V14.01,2013-01-12 15:03:00,
2013-01-12 10:33:00,77.7,69.5,30.18,East,90,3.0,9.0,76,0.00,,---,0.00,575.00,VWS V14.01,2013-01-12 15:33:00,
2013-01-12 11:03:00,78.0,69.8,30.17,East,89,0.0,11.0,76,0.00,,---,0.00,661.00,VWS V14.01,2013-01-12 16:03:00,
2013-01-12 11:33:00,80.0,69.8,30.16,ESE,106,3.0,12.0,71,0.00,,---,0.00,675.00,VWS V14.01,2013-01-12 16:33:00,
2013-01-12 12:03:00,78.3,68.5,30.14,East,87,7.0,11.0,72,0.00,,---,0.00,673.00,VWS V14.01,2013-01-12 17:03:00,
2013-01-12 12:33:00,79.4,68.8,30.12,SE,125,3.0,12.0,70,0.00,,---,0.00,649.00,VWS V14.01,2013-01-12 17:33:00,
2013-01-12 13:03:00,79.4,69.2,30.11,East,87,0.0,10.0,71,0.00,,---,0.00,638.00,VWS V14.01,2013-01-12 18:03:00,
2013-01-12 13:33:00,79.4,69.2,30.10,ESE,111,5.0,12.0,71,0.00,,---,0.00,621.00,VWS V14.01,2013-01-12 18:33:00,
2013-01-12 14:03:00,79.4,69.2,30.10,ESE,113,0.0,12.0,71,0.00,,---,0.00,578.00,VWS V14.01,2013-01-12 19:03:00,
2013-01-12 14:33:00,79.5,69.3,30.10,ESE,110,8.0,10.0,71,0.00,,---,0.00,526.00,VWS V14.01,2013-01-12 19:33:00,
2013-01-12 15:03:00,79.1,69.7,30.09,ENE,78,4.0,9.0,73,0.00,,---,0.00,452.00,VWS V14.01,2013-01-12 20:03:00,
2013-01-12 15:33:00,78.3,68.9,30.09,East,101,6.0,11.0,73,0.00,,---,0.00,364.00,VWS V14.01,2013-01-12 20:33:00,
2013-01-12 16:03:00,77.2,68.7,30.10,ESE,120,2.0,11.0,75,0.00,,---,0.00,297.00,VWS V14.01,2013-01-12 21:03:00,
2013-01-12 16:33:00,76.0,68.7,30.10,East,98,0.0,11.0,78,0.00,,---,0.00,185.00,VWS V14.01,2013-01-12 21:33:00,
2013-01-12 17:03:00,75.3,68.3,30.11,ESE,112,4.0,7.0,79,0.00,,---,0.00,79.00,VWS V14.01,2013-01-12 22:03:00,
2013-01-12 17:33:00,74.1,68.3,30.11,ESE,121,0.0,5.0,82,0.00,,---,0.00,14.00,VWS V14.01,2013-01-12 22:33:00,
2013-01-12 18:03:00,72.6,67.5,30.12,ESE,121,0.0,0.0,84,0.00,,---,0.00,0.00,VWS V14.01,2013-01-12 23:03:00,
2013-01-12 18:33:00,71.5,66.8,30.13,ESE,121,0.0,0.0,85,0.00,,---,0.00,0.00,VWS V14.01,2013-01-12 23:33:00,
2013-01-12 19:03:00,69.9,65.9,30.13,ESE,121,0.0,0.0,87,0.00,,---,0.00,0.00,VWS V14.01,2013-01-13 00:03:00,
2013-01-12 19:33:00,68.2,65.5,30.12,ESE,121,0.0,0.0,91,0.00,,---,0.00,0.00,VWS V14.01,2013-01-13 00:33:00,
2013-01-12 20:03:00,68.3,65.9,30.13,ESE,121,0.0,0.0,92,0.00,,---,0.00,0.00,VWS V14.01,2013-01-13 01:03:00,
2013-01-12 20:33:00,67.9,65.5,30.13,ESE,121,0.0,0.0,92,0.00,,---,0.00,0.00,VWS V14.01,2013-01-13 01:33:00,
2013-01-12 21:03:00,67.7,65.3,30.12,ESE,121,0.0,0.0,92,0.00,,---,0.00,0.00,VWS V14.01,2013-01-13 02:03:00,
2013-01-12 21:33:00,67.1,64.7,30.11,ESE,121,0.0,0.0,92,0.00,,---,0.00,0.00,VWS V14.01,2013-01-13 02:33:00,
2013-01-12 22:03:00,66.9,64.5,30.11,ESE,121,0.0,0.0,92,0.00,,---,0.00,0.00,VWS V14.01,2013-01-13 03:03:00,
2013-01-12 22:33:00,67.4,64.4,30.11,ESE,121,0.0,1.0,90,0.00,,---,0.00,0.00,VWS V14.01,2013-01-13 03:33:00,
2013-01-12 23:03:00,67.8,64.1,30.10,ESE,121,0.0,0.0,88,0.00,,---,0.00,0.00,VWS V14.01,2013-01-13 04:03:00,
2013-01-12 23:33:00,67.9,64.2,30.10,ESE,121,0.0,0.0,88,0.00,,---,0.00,0.00,VWS V14.01,2013-01-13 04:33:00,